Churchill Airport
CYYQ : now visible

Airfield :











YOU CAN JOIN US ON...

 
LOGIN :

Register | Disclaimer

   EN    FR    IT 

 









Legend :    VFR   Marginal VFR   IFR   Intensive IFR   Very Intensive IFR
Visi :
Ceiling :
>= 8 km
>= 3000ft
5 to 8 km
1000 to 3000 ft
1500m to 5 km
500 to 1000 ft
800 to 1500m
200 to 500 ft
< 800m
< 200 ft
Symbols :   Thunderstorms  Fog  Heavy snow  Heavy precipitations  Wind > 20 kt






- Airport Elevation : 94 ft
- IATA code : YYQ


CYYQ - Churchill

CURRENT METAR :
  • 291500Z 26010KT 15SM BKN011 M09/M10 A2998 RMK SC7 SLP157

EXPIRED METARs :
  • 291424Z 24007KT 15SM BKN013 BKN220 M09/M10 A2998 RMK SC7CI1 CI TR SLP156
  • 291400Z 23008KT 12SM -SN FEW015 SCT030 BKN040 OVC220 M10/M11 A2998 RMK SF1SC3SC2CI2 SLP156
  • 291300Z 23009KT 12SM -SN BKN041 OVC055 M11/M12 A2998 RMK SC6SC2 SLP158
  • 291235Z 23010KT 12SM -SN SCT056 OVC090 M11/M12 A2999 RMK SC4AC4 SLP159

TAF TAF CYYQ
Valid from the 29 at 12:00 until the 30 at 12:00 UTC


291151Z 2912/3012 23012KT P6SM FEW140
BECMG 2914/2916 BKN008
FM291600 25012KT P6SM -SN OVC008
TEMPO 2916/2919 P6SM NSW OVC010
FM291900 26012KT P6SM OVC010
BECMG 2923/3001 27008KT
FM300400 25005KT P6SM OVC008
BECMG 3006/3008 20008KT
BECMG 3010/3012 18012KT RMK NXT FCST BY 291800Z



MET'MAP, your aeronautical weather chart ! - Copyright ORBIFLY December 2007 - Disclaimer

ORBIFLY MET'MAP TEAM :

Programming & Development : Alexandra Zaïnal
Concept & original design : Baudouin d'Aumeries
Assistance for programming : Marc-Olivier Méhu
Technical & hardware support : Manuel Goepfert

Contact : metmap@orbifly.com




SOURCES & CREDITS :

   NOAA       Earth
Advisory